Abbyville, Kansas
Current Conditions -  °F | °C
As of 9:52 PM on Thursday 27 Nov 2014 (Local Time) from KHUT Reporting Station
Clear Clear  
Wind Chill: 33°   Ceiling: Unl
Heat Index: 41°   Visibility: 10mi
Dew Point: 22°   Wind: 15mph
Humidity: 47%   Direction: 170°S
Pressure: 30.15"   Gusts: NA
Location:  37.97°N, 98.2°W
Report Text: KHUT 280352Z 17013KT 10SM CLR 05/M06 A3015 RMK AO2 SLP214 T00501056
Loading
Personal Weather Stations






























Interactive Weather Map New forecast layout! Learn more

10-Day Weather Forecast

Advertisements
Track Severe Weather on mobile